Terminal Aerodrome Forecast
Issued by NWS Blacksburg, VA

Home | Current Version | Previous Version | Text Only | Print | Product List | Glossary On
Versions: 1 2 3 4 5 6 7 8 9 10 11 12 13 14 15 16 17 18 19 20 21 22 23 24
000
FTUS41 KRNK 231731 AAC
TAFDAN
TAF AMD
KDAN 231731Z 2318/2418 VRB03KT 3SM BR OVC005
     FM232100 20004KT P6SM BKN010
     FM240000 VRB03KT P6SM SCT010
     FM240500 21004KT P6SM BKN025
     FM240700 22004KT 3SM BR BKN010
     FM241200 21004KT P6SM BKN003
     FM241500 22008KT P6SM BKN045=

USA.gov is the U.S. government's official web portal to all federal, state and local government web resources and services.